Decoded Metar for CYNE (NORWAY HOUSE ARP in MB, CANADA) (IATA:YNE) | Meteo·Mobile Aviation Weather
aviador You're here:

CYNE Decoded Metar

NORWAY HOUSE ARP in MB, CANADA
Report Time2020-02-25 20:00:00
UTC Time2020-02-25 20:39:49
Flight Rules vfr VFR
WindCalm
Visibility9999 m
Phenomena:N/A
Clouds:Few 110 Hf
Expected CloudBase > 2,000 ft AGL from Temp-Dew spread
CeilingNone
Temp-14°C (ISA -28)
Dew Point-19°C (66% RH)
AAT-17.5°C
QNH1037 hPa
Density Alt-3,540 ft
Elevation732 ft
Report Wrong Elevation
Raw Report
CYNE 252000Z AUTO 00000KT 9SM FEW110 M14/M19 A3061 RMK SLP394=

Extra information for CYNE:More info

Metar Taf Metar & Taf Last 4 Metars F.Rules Stats Wind Profile Meteogram Temp Stats Airport Information Weather charts Add Link Nearby VenuesMetar ALERT Operation Metar Decoded Social comments